KLAA/LAA METAR and TAF weather

Enter ICAO airport designator
Station Type Date Time Source
KLAA METAR 2021/02/24 16:53 UTC NOAA

KLAA 241653Z AUTO 00000KT 10SM BKN075 04/M08 A3021 RMK AO2 SLP233 T00391083


Station Type Date Time Source
KLAA Decoded METAR 2021/02/24 16:53 UTC NOAA

LAMAR MUNICIPAL AIRPORT, CO, United States (KLAA) 38-04N 102-41W 1119M
Feb 24, 2021 - 11:53 AM EST / 2021.02.24 1653 UTC
Wind: Calm:0
Visibility: 10 mile(s):0
Sky conditions: mostly cloudy
Temperature: 39.0 F (3.9 C)
Dew Point: 17.1 F (-8.3 C)
Relative Humidity: 40%
Pressure (altimeter): 30.21 in. Hg (1023 hPa)
ob: KLAA 241653Z AUTO 00000KT 10SM BKN075 04/M08 A3021 RMK AO2 SLP233 T00391083
cycle: 17

Station Type Date Time Source
KLAA TAF UTC NOAA

Error!

Example: see airport list